sensor_id;sensor_type;location;lat;lon;timestamp;P1;durP1;ratioP1;P2;durP2;ratioP2
19171;SDS011;9718;52.200;21.052;2022-12-07T00:01:27;39.07;;;16.83;;
19171;SDS011;9718;52.200;21.052;2022-12-07T00:04:00;28.37;;;14.03;;
19171;SDS011;9718;52.200;21.052;2022-12-07T00:08:58;35.23;;;16.03;;
19171;SDS011;9718;52.200;21.052;2022-12-07T00:11:26;32.07;;;14.80;;
19171;SDS011;9718;52.200;21.052;2022-12-07T00:13:54;31.27;;;16.10;;
19171;SDS011;9718;52.200;21.052;2022-12-07T00:16:23;39.17;;;17.30;;
19171;SDS011;9718;52.200;21.052;2022-12-07T00:18:53;41.37;;;16.60;;
19171;SDS011;9718;52.200;21.052;2022-12-07T00:21:24;34.87;;;16.83;;
19171;SDS011;9718;52.200;21.052;2022-12-07T00:23:53;33.10;;;17.47;;
19171;SDS011;9718;52.200;21.052;2022-12-07T00:26:25;33.13;;;17.10;;
19171;SDS011;9718;52.200;21.052;2022-12-07T00:28:58;37.33;;;16.80;;
19171;SDS011;9718;52.200;21.052;2022-12-07T00:31:28;36.93;;;17.50;;
19171;SDS011;9718;52.200;21.052;2022-12-07T00:33:57;40.43;;;19.37;;
19171;SDS011;9718;52.200;21.052;2022-12-07T00:36:24;38.67;;;18.10;;
19171;SDS011;9718;52.200;21.052;2022-12-07T00:38:53;35.67;;;17.40;;
19171;SDS011;9718;52.200;21.052;2022-12-07T00:41:22;39.73;;;18.87;;
19171;SDS011;9718;52.200;21.052;2022-12-07T00:43:51;43.00;;;18.30;;
19171;SDS011;9718;52.200;21.052;2022-12-07T00:46:19;37.97;;;18.83;;
19171;SDS011;9718;52.200;21.052;2022-12-07T00:48:48;52.60;;;20.17;;
19171;SDS011;9718;52.200;21.052;2022-12-07T00:51:16;45.73;;;21.00;;
19171;SDS011;9718;52.200;21.052;2022-12-07T00:53:45;40.33;;;20.73;;
19171;SDS011;9718;52.200;21.052;2022-12-07T00:56:13;44.97;;;21.30;;
19171;SDS011;9718;52.200;21.052;2022-12-07T00:58:52;45.97;;;21.73;;
19171;SDS011;9718;52.200;21.052;2022-12-07T01:01:22;42.47;;;20.90;;
19171;SDS011;9718;52.200;21.052;2022-12-07T01:03:50;44.83;;;21.17;;
19171;SDS011;9718;52.200;21.052;2022-12-07T01:06:18;38.90;;;20.17;;
19171;SDS011;9718;52.200;21.052;2022-12-07T01:08:46;43.67;;;21.37;;
19171;SDS011;9718;52.200;21.052;2022-12-07T01:11:18;43.07;;;21.73;;
19171;SDS011;9718;52.200;21.052;2022-12-07T01:13:49;38.30;;;19.10;;
19171;SDS011;9718;52.200;21.052;2022-12-07T01:16:17;46.10;;;21.20;;
19171;SDS011;9718;52.200;21.052;2022-12-07T01:18:46;44.33;;;21.33;;
19171;SDS011;9718;52.200;21.052;2022-12-07T01:21:15;42.73;;;21.20;;
19171;SDS011;9718;52.200;21.052;2022-12-07T01:23:47;47.83;;;21.03;;
19171;SDS011;9718;52.200;21.052;2022-12-07T01:26:16;45.93;;;21.93;;
19171;SDS011;9718;52.200;21.052;2022-12-07T01:28:46;47.67;;;21.30;;
19171;SDS011;9718;52.200;21.052;2022-12-07T01:31:14;43.53;;;19.63;;
19171;SDS011;9718;52.200;21.052;2022-12-07T01:33:44;35.13;;;19.57;;
19171;SDS011;9718;52.200;21.052;2022-12-07T01:36:20;37.80;;;18.33;;
19171;SDS011;9718;52.200;21.052;2022-12-07T01:38:56;39.27;;;17.90;;
19171;SDS011;9718;52.200;21.052;2022-12-07T01:41:26;36.53;;;18.30;;
19171;SDS011;9718;52.200;21.052;2022-12-07T01:46:57;37.47;;;17.67;;
19171;SDS011;9718;52.200;21.052;2022-12-07T01:49:37;37.03;;;17.07;;
19171;SDS011;9718;52.200;21.052;2022-12-07T01:52:43;35.40;;;16.97;;
19171;SDS011;9718;52.200;21.052;2022-12-07T01:55:04;35.43;;;14.97;;
19171;SDS011;9718;52.200;21.052;2022-12-07T01:57:36;28.13;;;14.47;;
19171;SDS011;9718;52.200;21.052;2022-12-07T02:00:07;27.20;;;12.77;;
19171;SDS011;9718;52.200;21.052;2022-12-07T02:02:36;29.80;;;14.60;;
19171;SDS011;9718;52.200;21.052;2022-12-07T02:05:08;25.43;;;11.80;;
19171;SDS011;9718;52.200;21.052;2022-12-07T02:07:36;24.33;;;12.37;;
19171;SDS011;9718;52.200;21.052;2022-12-07T02:10:14;24.93;;;12.07;;
19171;SDS011;9718;52.200;21.052;2022-12-07T02:12:49;23.20;;;11.90;;
19171;SDS011;9718;52.200;21.052;2022-12-07T02:18:38;22.57;;;10.10;;
19171;SDS011;9718;52.200;21.052;2022-12-07T02:29:33;18.90;;;10.23;;
19171;SDS011;9718;52.200;21.052;2022-12-07T02:34:48;25.90;;;11.80;;
19171;SDS011;9718;52.200;21.052;2022-12-07T02:37:25;18.17;;;9.40;;
19171;SDS011;9718;52.200;21.052;2022-12-07T02:42:37;18.27;;;8.83;;
19171;SDS011;9718;52.200;21.052;2022-12-07T02:45:09;19.70;;;9.27;;
19171;SDS011;9718;52.200;21.052;2022-12-07T02:47:40;18.87;;;9.33;;
19171;SDS011;9718;52.200;21.052;2022-12-07T02:50:09;18.43;;;8.60;;
19171;SDS011;9718;52.200;21.052;2022-12-07T02:52:37;15.87;;;8.40;;
19171;SDS011;9718;52.200;21.052;2022-12-07T02:55:04;18.57;;;8.70;;
19171;SDS011;9718;52.200;21.052;2022-12-07T03:00:08;18.97;;;9.27;;
19171;SDS011;9718;52.200;21.052;2022-12-07T03:02:58;19.97;;;9.23;;
19171;SDS011;9718;52.200;21.052;2022-12-07T03:08:29;21.17;;;9.40;;
19171;SDS011;9718;52.200;21.052;2022-12-07T03:11:12;22.43;;;10.40;;
19171;SDS011;9718;52.200;21.052;2022-12-07T03:13:49;17.17;;;8.90;;
19171;SDS011;9718;52.200;21.052;2022-12-07T03:16:27;15.80;;;8.37;;
19171;SDS011;9718;52.200;21.052;2022-12-07T03:19:07;17.57;;;8.80;;
19171;SDS011;9718;52.200;21.052;2022-12-07T03:21:40;17.03;;;8.37;;
19171;SDS011;9718;52.200;21.052;2022-12-07T03:24:11;16.57;;;8.00;;
19171;SDS011;9718;52.200;21.052;2022-12-07T03:26:42;14.57;;;7.57;;
19171;SDS011;9718;52.200;21.052;2022-12-07T03:34:57;15.30;;;7.60;;
19171;SDS011;9718;52.200;21.052;2022-12-07T03:40:21;13.17;;;6.73;;
19171;SDS011;9718;52.200;21.052;2022-12-07T03:42:49;12.40;;;6.67;;
19171;SDS011;9718;52.200;21.052;2022-12-07T03:45:18;13.60;;;5.93;;
19171;SDS011;9718;52.200;21.052;2022-12-07T03:48:22;11.10;;;6.00;;
19171;SDS011;9718;52.200;21.052;2022-12-07T03:50:52;11.13;;;5.87;;
19171;SDS011;9718;52.200;21.052;2022-12-07T03:53:33;12.70;;;5.83;;
19171;SDS011;9718;52.200;21.052;2022-12-07T03:56:12;11.37;;;5.67;;
19171;SDS011;9718;52.200;21.052;2022-12-07T03:58:40;12.03;;;5.87;;
19171;SDS011;9718;52.200;21.052;2022-12-07T04:01:08;9.60;;;5.27;;
19171;SDS011;9718;52.200;21.052;2022-12-07T04:03:35;12.97;;;6.17;;
19171;SDS011;9718;52.200;21.052;2022-12-07T04:06:02;12.77;;;5.47;;
19171;SDS011;9718;52.200;21.052;2022-12-07T04:08:29;11.40;;;5.67;;
19171;SDS011;9718;52.200;21.052;2022-12-07T04:10:57;11.13;;;5.63;;
19171;SDS011;9718;52.200;21.052;2022-12-07T04:13:23;13.67;;;6.20;;
19171;SDS011;9718;52.200;21.052;2022-12-07T04:15:51;9.83;;;5.17;;
19171;SDS011;9718;52.200;21.052;2022-12-07T04:18:18;9.97;;;4.63;;
19171;SDS011;9718;52.200;21.052;2022-12-07T04:20:45;10.90;;;5.47;;
19171;SDS011;9718;52.200;21.052;2022-12-07T04:23:13;11.53;;;5.30;;
19171;SDS011;9718;52.200;21.052;2022-12-07T04:25:40;9.73;;;5.00;;
19171;SDS011;9718;52.200;21.052;2022-12-07T04:28:07;9.80;;;4.23;;
19171;SDS011;9718;52.200;21.052;2022-12-07T04:30:34;9.67;;;5.33;;
19171;SDS011;9718;52.200;21.052;2022-12-07T04:33:01;11.17;;;5.17;;
19171;SDS011;9718;52.200;21.052;2022-12-07T04:35:28;9.13;;;5.00;;
19171;SDS011;9718;52.200;21.052;2022-12-07T04:37:55;9.57;;;4.87;;
19171;SDS011;9718;52.200;21.052;2022-12-07T04:40:22;8.87;;;4.90;;
19171;SDS011;9718;52.200;21.052;2022-12-07T04:42:49;9.20;;;5.00;;
19171;SDS011;9718;52.200;21.052;2022-12-07T04:45:17;9.73;;;4.77;;
19171;SDS011;9718;52.200;21.052;2022-12-07T04:47:44;11.00;;;5.17;;
19171;SDS011;9718;52.200;21.052;2022-12-07T04:50:11;10.67;;;4.93;;
19171;SDS011;9718;52.200;21.052;2022-12-07T04:52:38;7.90;;;4.53;;
19171;SDS011;9718;52.200;21.052;2022-12-07T04:55:05;11.83;;;5.17;;
19171;SDS011;9718;52.200;21.052;2022-12-07T04:57:32;9.90;;;4.77;;
19171;SDS011;9718;52.200;21.052;2022-12-07T05:00:00;9.93;;;5.27;;
19171;SDS011;9718;52.200;21.052;2022-12-07T05:02:27;10.57;;;5.30;;
19171;SDS011;9718;52.200;21.052;2022-12-07T05:04:55;11.70;;;5.33;;
19171;SDS011;9718;52.200;21.052;2022-12-07T05:07:22;9.27;;;5.50;;
19171;SDS011;9718;52.200;21.052;2022-12-07T05:09:49;13.33;;;6.03;;
19171;SDS011;9718;52.200;21.052;2022-12-07T05:12:16;11.73;;;5.83;;
19171;SDS011;9718;52.200;21.052;2022-12-07T05:14:43;10.30;;;5.43;;
19171;SDS011;9718;52.200;21.052;2022-12-07T05:17:10;10.50;;;5.17;;
19171;SDS011;9718;52.200;21.052;2022-12-07T05:19:38;10.50;;;5.57;;
19171;SDS011;9718;52.200;21.052;2022-12-07T05:22:05;10.47;;;5.43;;
19171;SDS011;9718;52.200;21.052;2022-12-07T05:24:32;10.93;;;5.27;;
19171;SDS011;9718;52.200;21.052;2022-12-07T05:26:59;14.87;;;6.27;;
19171;SDS011;9718;52.200;21.052;2022-12-07T05:29:26;9.27;;;4.67;;
19171;SDS011;9718;52.200;21.052;2022-12-07T05:31:53;11.70;;;5.70;;
19171;SDS011;9718;52.200;21.052;2022-12-07T05:34:20;12.13;;;5.80;;
19171;SDS011;9718;52.200;21.052;2022-12-07T05:36:47;9.73;;;5.37;;
19171;SDS011;9718;52.200;21.052;2022-12-07T05:39:15;12.43;;;5.10;;
19171;SDS011;9718;52.200;21.052;2022-12-07T05:41:42;12.40;;;5.73;;
19171;SDS011;9718;52.200;21.052;2022-12-07T05:44:28;13.83;;;6.13;;
19171;SDS011;9718;52.200;21.052;2022-12-07T05:46:55;14.67;;;6.20;;
19171;SDS011;9718;52.200;21.052;2022-12-07T05:49:23;11.90;;;5.77;;
19171;SDS011;9718;52.200;21.052;2022-12-07T05:51:50;11.87;;;6.17;;
19171;SDS011;9718;52.200;21.052;2022-12-07T05:54:17;12.00;;;5.67;;
19171;SDS011;9718;52.200;21.052;2022-12-07T05:56:44;11.70;;;6.17;;
19171;SDS011;9718;52.200;21.052;2022-12-07T05:59:12;13.60;;;6.93;;
19171;SDS011;9718;52.200;21.052;2022-12-07T06:01:54;11.07;;;5.60;;
19171;SDS011;9718;52.200;21.052;2022-12-07T06:04:24;20.10;;;7.00;;
19171;SDS011;9718;52.200;21.052;2022-12-07T06:06:53;12.40;;;7.07;;
19171;SDS011;9718;52.200;21.052;2022-12-07T06:09:21;16.70;;;7.77;;
19171;SDS011;9718;52.200;21.052;2022-12-07T06:11:49;14.77;;;7.43;;
19171;SDS011;9718;52.200;21.052;2022-12-07T06:14:35;15.07;;;7.30;;
19171;SDS011;9718;52.200;21.052;2022-12-07T06:17:03;18.00;;;6.97;;
19171;SDS011;9718;52.200;21.052;2022-12-07T06:19:30;14.53;;;7.03;;
19171;SDS011;9718;52.200;21.052;2022-12-07T06:21:58;13.10;;;7.40;;
19171;SDS011;9718;52.200;21.052;2022-12-07T06:24:25;13.10;;;7.33;;
19171;SDS011;9718;52.200;21.052;2022-12-07T06:26:52;17.17;;;7.17;;
19171;SDS011;9718;52.200;21.052;2022-12-07T06:29:20;13.83;;;7.07;;
19171;SDS011;9718;52.200;21.052;2022-12-07T06:31:48;15.20;;;6.90;;
19171;SDS011;9718;52.200;21.052;2022-12-07T06:34:17;13.70;;;6.70;;
19171;SDS011;9718;52.200;21.052;2022-12-07T06:36:46;13.50;;;7.10;;
19171;SDS011;9718;52.200;21.052;2022-12-07T06:39:18;14.30;;;7.17;;
19171;SDS011;9718;52.200;21.052;2022-12-07T06:41:46;16.77;;;7.73;;
19171;SDS011;9718;52.200;21.052;2022-12-07T06:44:14;14.47;;;6.07;;
19171;SDS011;9718;52.200;21.052;2022-12-07T06:46:41;17.43;;;6.77;;
19171;SDS011;9718;52.200;21.052;2022-12-07T06:49:08;15.93;;;7.40;;
19171;SDS011;9718;52.200;21.052;2022-12-07T06:51:35;17.17;;;6.03;;
19171;SDS011;9718;52.200;21.052;2022-12-07T06:54:03;15.73;;;8.33;;
19171;SDS011;9718;52.200;21.052;2022-12-07T06:56:30;13.67;;;6.43;;
19171;SDS011;9718;52.200;21.052;2022-12-07T06:58:58;13.63;;;6.23;;
19171;SDS011;9718;52.200;21.052;2022-12-07T07:01:25;15.07;;;7.53;;
19171;SDS011;9718;52.200;21.052;2022-12-07T07:03:52;14.27;;;6.93;;
19171;SDS011;9718;52.200;21.052;2022-12-07T07:06:19;17.80;;;7.57;;
19171;SDS011;9718;52.200;21.052;2022-12-07T07:08:46;14.80;;;7.20;;
19171;SDS011;9718;52.200;21.052;2022-12-07T07:11:13;16.30;;;6.60;;
19171;SDS011;9718;52.200;21.052;2022-12-07T07:13:41;15.13;;;7.60;;
19171;SDS011;9718;52.200;21.052;2022-12-07T07:16:07;19.57;;;7.50;;
19171;SDS011;9718;52.200;21.052;2022-12-07T07:18:35;13.80;;;6.67;;
19171;SDS011;9718;52.200;21.052;2022-12-07T07:21:02;16.63;;;7.73;;
19171;SDS011;9718;52.200;21.052;2022-12-07T07:23:30;13.60;;;7.27;;
19171;SDS011;9718;52.200;21.052;2022-12-07T07:25:57;14.13;;;6.20;;
19171;SDS011;9718;52.200;21.052;2022-12-07T07:28:24;14.80;;;7.50;;
19171;SDS011;9718;52.200;21.052;2022-12-07T07:30:51;13.20;;;6.50;;
19171;SDS011;9718;52.200;21.052;2022-12-07T07:33:19;14.53;;;6.60;;
19171;SDS011;9718;52.200;21.052;2022-12-07T07:35:46;15.20;;;6.57;;
19171;SDS011;9718;52.200;21.052;2022-12-07T07:38:13;15.77;;;6.93;;
19171;SDS011;9718;52.200;21.052;2022-12-07T07:40:40;13.90;;;6.77;;
19171;SDS011;9718;52.200;21.052;2022-12-07T07:43:07;15.10;;;6.87;;
19171;SDS011;9718;52.200;21.052;2022-12-07T07:45:34;12.63;;;6.63;;
19171;SDS011;9718;52.200;21.052;2022-12-07T07:48:01;14.07;;;6.87;;
19171;SDS011;9718;52.200;21.052;2022-12-07T07:50:28;16.23;;;6.93;;
19171;SDS011;9718;52.200;21.052;2022-12-07T07:52:56;12.30;;;6.10;;
19171;SDS011;9718;52.200;21.052;2022-12-07T07:55:24;16.40;;;6.17;;
19171;SDS011;9718;52.200;21.052;2022-12-07T07:57:51;13.20;;;6.40;;
19171;SDS011;9718;52.200;21.052;2022-12-07T08:00:20;12.87;;;6.57;;
19171;SDS011;9718;52.200;21.052;2022-12-07T08:02:48;15.43;;;6.80;;
19171;SDS011;9718;52.200;21.052;2022-12-07T08:05:15;13.70;;;6.50;;
19171;SDS011;9718;52.200;21.052;2022-12-07T08:07:43;12.77;;;6.10;;
19171;SDS011;9718;52.200;21.052;2022-12-07T08:10:12;16.47;;;6.40;;
19171;SDS011;9718;52.200;21.052;2022-12-07T08:12:41;15.97;;;7.23;;
19171;SDS011;9718;52.200;21.052;2022-12-07T08:15:27;13.23;;;6.47;;
19171;SDS011;9718;52.200;21.052;2022-12-07T08:17:56;13.00;;;6.53;;
19171;SDS011;9718;52.200;21.052;2022-12-07T08:20:24;12.43;;;5.63;;
19171;SDS011;9718;52.200;21.052;2022-12-07T08:22:52;15.07;;;6.83;;
19171;SDS011;9718;52.200;21.052;2022-12-07T08:25:19;15.77;;;6.80;;
19171;SDS011;9718;52.200;21.052;2022-12-07T08:27:46;17.40;;;7.20;;
19171;SDS011;9718;52.200;21.052;2022-12-07T08:30:14;14.90;;;7.70;;
19171;SDS011;9718;52.200;21.052;2022-12-07T08:32:41;16.93;;;7.53;;
19171;SDS011;9718;52.200;21.052;2022-12-07T08:35:08;16.87;;;8.50;;
19171;SDS011;9718;52.200;21.052;2022-12-07T08:37:36;17.30;;;7.37;;
19171;SDS011;9718;52.200;21.052;2022-12-07T08:40:04;18.23;;;7.43;;
19171;SDS011;9718;52.200;21.052;2022-12-07T08:42:33;20.37;;;8.90;;
19171;SDS011;9718;52.200;21.052;2022-12-07T08:45:07;20.07;;;8.17;;
19171;SDS011;9718;52.200;21.052;2022-12-07T08:47:37;19.03;;;9.03;;
19171;SDS011;9718;52.200;21.052;2022-12-07T08:50:08;19.80;;;9.03;;
19171;SDS011;9718;52.200;21.052;2022-12-07T08:52:37;21.67;;;9.10;;
19171;SDS011;9718;52.200;21.052;2022-12-07T08:55:08;21.23;;;10.17;;
19171;SDS011;9718;52.200;21.052;2022-12-07T08:57:37;18.40;;;8.70;;
19171;SDS011;9718;52.200;21.052;2022-12-07T09:00:06;20.27;;;9.67;;
19171;SDS011;9718;52.200;21.052;2022-12-07T09:02:34;23.60;;;10.57;;
19171;SDS011;9718;52.200;21.052;2022-12-07T09:05:01;22.37;;;10.70;;
19171;SDS011;9718;52.200;21.052;2022-12-07T09:07:29;25.37;;;10.40;;
19171;SDS011;9718;52.200;21.052;2022-12-07T09:09:58;26.43;;;11.60;;
19171;SDS011;9718;52.200;21.052;2022-12-07T09:12:26;23.23;;;10.20;;
19171;SDS011;9718;52.200;21.052;2022-12-07T09:14:53;23.23;;;10.47;;
19171;SDS011;9718;52.200;21.052;2022-12-07T09:17:20;23.70;;;10.67;;
19171;SDS011;9718;52.200;21.052;2022-12-07T09:19:48;24.90;;;11.70;;
19171;SDS011;9718;52.200;21.052;2022-12-07T09:22:15;24.33;;;10.60;;
19171;SDS011;9718;52.200;21.052;2022-12-07T09:24:42;22.27;;;11.57;;
19171;SDS011;9718;52.200;21.052;2022-12-07T09:27:11;27.33;;;10.57;;
19171;SDS011;9718;52.200;21.052;2022-12-07T09:29:38;23.77;;;10.13;;
19171;SDS011;9718;52.200;21.052;2022-12-07T09:32:05;24.33;;;9.70;;
19171;SDS011;9718;52.200;21.052;2022-12-07T09:34:37;20.53;;;9.83;;
19171;SDS011;9718;52.200;21.052;2022-12-07T09:37:04;28.07;;;11.40;;
19171;SDS011;9718;52.200;21.052;2022-12-07T09:39:32;22.67;;;9.90;;
19171;SDS011;9718;52.200;21.052;2022-12-07T09:42:00;21.30;;;9.97;;
19171;SDS011;9718;52.200;21.052;2022-12-07T09:44:50;22.37;;;9.80;;
19171;SDS011;9718;52.200;21.052;2022-12-07T09:47:54;23.50;;;10.03;;
19171;SDS011;9718;52.200;21.052;2022-12-07T09:51:02;19.60;;;8.90;;
19171;SDS011;9718;52.200;21.052;2022-12-07T09:54:07;23.57;;;9.47;;
19171;SDS011;9718;52.200;21.052;2022-12-07T09:56:54;21.57;;;10.37;;
19171;SDS011;9718;52.200;21.052;2022-12-07T09:59:57;21.63;;;9.07;;
19171;SDS011;9718;52.200;21.052;2022-12-07T10:03:03;22.57;;;9.87;;
19171;SDS011;9718;52.200;21.052;2022-12-07T10:06:06;24.27;;;10.37;;
19171;SDS011;9718;52.200;21.052;2022-12-07T10:09:09;21.63;;;9.37;;
19171;SDS011;9718;52.200;21.052;2022-12-07T10:12:16;19.13;;;8.23;;
19171;SDS011;9718;52.200;21.052;2022-12-07T10:15:02;23.37;;;9.63;;
19171;SDS011;9718;52.200;21.052;2022-12-07T10:18:03;20.63;;;9.07;;
19171;SDS011;9718;52.200;21.052;2022-12-07T10:24:02;25.93;;;10.00;;
19171;SDS011;9718;52.200;21.052;2022-12-07T10:27:30;17.90;;;8.00;;
19171;SDS011;9718;52.200;21.052;2022-12-07T10:31:01;21.73;;;9.13;;
19171;SDS011;9718;52.200;21.052;2022-12-07T10:33:57;21.93;;;9.90;;
19171;SDS011;9718;52.200;21.052;2022-12-07T10:37:32;18.97;;;7.87;;
19171;SDS011;9718;52.200;21.052;2022-12-07T10:40:48;19.37;;;7.73;;
19171;SDS011;9718;52.200;21.052;2022-12-07T10:54:12;23.27;;;9.50;;
19171;SDS011;9718;52.200;21.052;2022-12-07T11:03:06;16.90;;;8.43;;
19171;SDS011;9718;52.200;21.052;2022-12-07T11:11:45;16.77;;;7.73;;
19171;SDS011;9718;52.200;21.052;2022-12-07T11:24:10;16.93;;;8.03;;
19171;SDS011;9718;52.200;21.052;2022-12-07T11:27:06;16.90;;;7.50;;
19171;SDS011;9718;52.200;21.052;2022-12-07T11:30:13;15.67;;;8.27;;
19171;SDS011;9718;52.200;21.052;2022-12-07T11:33:27;12.60;;;6.10;;
19171;SDS011;9718;52.200;21.052;2022-12-07T11:36:36;14.73;;;7.87;;
19171;SDS011;9718;52.200;21.052;2022-12-07T11:39:34;16.07;;;7.93;;
19171;SDS011;9718;52.200;21.052;2022-12-07T11:42:33;15.27;;;7.57;;
19171;SDS011;9718;52.200;21.052;2022-12-07T11:46:27;16.53;;;7.73;;
19171;SDS011;9718;52.200;21.052;2022-12-07T11:49:23;18.67;;;8.07;;
19171;SDS011;9718;52.200;21.052;2022-12-07T11:55:49;15.30;;;8.10;;
19171;SDS011;9718;52.200;21.052;2022-12-07T12:02:27;15.73;;;8.00;;
19171;SDS011;9718;52.200;21.052;2022-12-07T12:05:47;16.87;;;7.47;;
19171;SDS011;9718;52.200;21.052;2022-12-07T12:08:58;16.43;;;7.30;;
19171;SDS011;9718;52.200;21.052;2022-12-07T12:16:02;16.57;;;7.77;;
19171;SDS011;9718;52.200;21.052;2022-12-07T12:22:22;15.73;;;7.07;;
19171;SDS011;9718;52.200;21.052;2022-12-07T12:25:34;18.20;;;8.67;;
19171;SDS011;9718;52.200;21.052;2022-12-07T12:31:37;18.53;;;9.37;;
19171;SDS011;9718;52.200;21.052;2022-12-07T12:43:02;17.80;;;8.47;;
19171;SDS011;9718;52.200;21.052;2022-12-07T12:55:12;19.07;;;9.30;;
19171;SDS011;9718;52.200;21.052;2022-12-07T13:04:16;15.43;;;7.70;;
19171;SDS011;9718;52.200;21.052;2022-12-07T13:06:47;16.73;;;7.87;;
19171;SDS011;9718;52.200;21.052;2022-12-07T13:09:18;15.27;;;8.03;;
19171;SDS011;9718;52.200;21.052;2022-12-07T13:12:00;16.07;;;7.77;;
19171;SDS011;9718;52.200;21.052;2022-12-07T13:19:59;15.30;;;7.60;;
19171;SDS011;9718;52.200;21.052;2022-12-07T13:24:59;14.63;;;7.07;;
19171;SDS011;9718;52.200;21.052;2022-12-07T13:27:57;15.50;;;7.20;;
19171;SDS011;9718;52.200;21.052;2022-12-07T13:30:46;13.10;;;7.23;;
19171;SDS011;9718;52.200;21.052;2022-12-07T13:33:35;15.20;;;7.40;;
19171;SDS011;9718;52.200;21.052;2022-12-07T13:36:02;13.37;;;7.03;;
19171;SDS011;9718;52.200;21.052;2022-12-07T13:38:34;15.37;;;7.47;;
19171;SDS011;9718;52.200;21.052;2022-12-07T13:41:05;15.17;;;7.47;;
19171;SDS011;9718;52.200;21.052;2022-12-07T13:43:44;14.23;;;7.87;;
19171;SDS011;9718;52.200;21.052;2022-12-07T13:46:11;16.60;;;7.43;;
19171;SDS011;9718;52.200;21.052;2022-12-07T13:48:47;15.37;;;7.90;;
19171;SDS011;9718;52.200;21.052;2022-12-07T13:51:20;17.60;;;8.13;;
19171;SDS011;9718;52.200;21.052;2022-12-07T13:53:51;15.20;;;7.83;;
19171;SDS011;9718;52.200;21.052;2022-12-07T13:56:21;16.37;;;7.77;;
19171;SDS011;9718;52.200;21.052;2022-12-07T13:58:52;17.17;;;8.70;;
19171;SDS011;9718;52.200;21.052;2022-12-07T14:01:19;17.70;;;9.03;;
19171;SDS011;9718;52.200;21.052;2022-12-07T14:03:47;19.10;;;9.73;;
19171;SDS011;9718;52.200;21.052;2022-12-07T14:11:46;16.37;;;8.83;;
19171;SDS011;9718;52.200;21.052;2022-12-07T14:14:23;17.00;;;8.50;;
19171;SDS011;9718;52.200;21.052;2022-12-07T14:20:01;17.10;;;8.43;;
19171;SDS011;9718;52.200;21.052;2022-12-07T14:22:34;16.17;;;9.13;;
19171;SDS011;9718;52.200;21.052;2022-12-07T14:25:21;17.37;;;8.57;;
19171;SDS011;9718;52.200;21.052;2022-12-07T14:27:54;14.13;;;7.47;;
19171;SDS011;9718;52.200;21.052;2022-12-07T14:30:30;16.87;;;7.87;;
19171;SDS011;9718;52.200;21.052;2022-12-07T14:33:01;16.47;;;7.53;;
19171;SDS011;9718;52.200;21.052;2022-12-07T14:35:31;17.00;;;8.27;;
19171;SDS011;9718;52.200;21.052;2022-12-07T14:37:59;16.43;;;9.30;;
19171;SDS011;9718;52.200;21.052;2022-12-07T14:40:27;19.67;;;9.30;;
19171;SDS011;9718;52.200;21.052;2022-12-07T14:43:05;18.17;;;9.40;;
19171;SDS011;9718;52.200;21.052;2022-12-07T14:45:37;17.63;;;8.53;;
19171;SDS011;9718;52.200;21.052;2022-12-07T14:48:06;15.70;;;8.73;;
19171;SDS011;9718;52.200;21.052;2022-12-07T14:50:57;17.10;;;8.50;;
19171;SDS011;9718;52.200;21.052;2022-12-07T14:53:46;17.33;;;8.77;;
19171;SDS011;9718;52.200;21.052;2022-12-07T14:56:26;17.87;;;9.63;;
19171;SDS011;9718;52.200;21.052;2022-12-07T14:58:54;17.10;;;9.27;;
19171;SDS011;9718;52.200;21.052;2022-12-07T15:01:21;22.23;;;10.53;;
19171;SDS011;9718;52.200;21.052;2022-12-07T15:03:48;18.87;;;9.43;;
19171;SDS011;9718;52.200;21.052;2022-12-07T15:06:16;19.67;;;10.80;;
19171;SDS011;9718;52.200;21.052;2022-12-07T15:08:44;19.53;;;10.07;;
19171;SDS011;9718;52.200;21.052;2022-12-07T15:11:13;20.70;;;9.43;;
19171;SDS011;9718;52.200;21.052;2022-12-07T15:13:41;20.77;;;10.20;;
19171;SDS011;9718;52.200;21.052;2022-12-07T15:16:29;23.53;;;10.60;;
19171;SDS011;9718;52.200;21.052;2022-12-07T15:19:21;20.67;;;10.40;;
19171;SDS011;9718;52.200;21.052;2022-12-07T15:21:55;18.87;;;10.30;;
19171;SDS011;9718;52.200;21.052;2022-12-07T15:24:23;19.10;;;10.57;;
19171;SDS011;9718;52.200;21.052;2022-12-07T15:26:50;18.70;;;9.73;;
19171;SDS011;9718;52.200;21.052;2022-12-07T15:29:18;21.63;;;10.23;;
19171;SDS011;9718;52.200;21.052;2022-12-07T15:31:49;23.67;;;11.83;;
19171;SDS011;9718;52.200;21.052;2022-12-07T15:34:25;21.20;;;10.80;;
19171;SDS011;9718;52.200;21.052;2022-12-07T15:37:05;20.27;;;10.30;;
19171;SDS011;9718;52.200;21.052;2022-12-07T15:39:32;19.37;;;11.07;;
19171;SDS011;9718;52.200;21.052;2022-12-07T15:42:00;24.50;;;10.93;;
19171;SDS011;9718;52.200;21.052;2022-12-07T15:44:27;19.53;;;10.13;;
19171;SDS011;9718;52.200;21.052;2022-12-07T15:47:13;18.00;;;9.27;;
19171;SDS011;9718;52.200;21.052;2022-12-07T15:49:40;19.43;;;10.13;;
19171;SDS011;9718;52.200;21.052;2022-12-07T15:52:07;24.30;;;10.70;;
19171;SDS011;9718;52.200;21.052;2022-12-07T15:54:34;19.83;;;10.20;;
19171;SDS011;9718;52.200;21.052;2022-12-07T15:57:01;22.30;;;11.67;;
19171;SDS011;9718;52.200;21.052;2022-12-07T15:59:28;23.00;;;10.80;;
19171;SDS011;9718;52.200;21.052;2022-12-07T16:01:56;19.17;;;10.23;;
19171;SDS011;9718;52.200;21.052;2022-12-07T16:04:23;21.67;;;10.13;;
19171;SDS011;9718;52.200;21.052;2022-12-07T16:06:51;22.53;;;10.10;;
19171;SDS011;9718;52.200;21.052;2022-12-07T16:09:18;21.27;;;10.80;;
19171;SDS011;9718;52.200;21.052;2022-12-07T16:11:45;20.33;;;9.93;;
19171;SDS011;9718;52.200;21.052;2022-12-07T16:14:12;20.77;;;10.97;;
19171;SDS011;9718;52.200;21.052;2022-12-07T16:16:40;21.33;;;10.37;;
19171;SDS011;9718;52.200;21.052;2022-12-07T16:19:08;25.80;;;10.57;;
19171;SDS011;9718;52.200;21.052;2022-12-07T16:21:36;21.50;;;11.07;;
19171;SDS011;9718;52.200;21.052;2022-12-07T16:24:03;21.97;;;10.37;;
19171;SDS011;9718;52.200;21.052;2022-12-07T16:26:31;21.63;;;11.20;;
19171;SDS011;9718;52.200;21.052;2022-12-07T16:28:59;23.23;;;11.83;;
19171;SDS011;9718;52.200;21.052;2022-12-07T16:31:27;19.53;;;10.50;;
19171;SDS011;9718;52.200;21.052;2022-12-07T16:33:55;22.50;;;10.83;;
19171;SDS011;9718;52.200;21.052;2022-12-07T16:36:24;19.53;;;10.40;;
19171;SDS011;9718;52.200;21.052;2022-12-07T16:39:13;21.47;;;9.73;;
19171;SDS011;9718;52.200;21.052;2022-12-07T16:41:41;22.43;;;10.20;;
19171;SDS011;9718;52.200;21.052;2022-12-07T16:44:09;25.27;;;10.90;;
19171;SDS011;9718;52.200;21.052;2022-12-07T16:46:38;21.63;;;10.47;;
19171;SDS011;9718;52.200;21.052;2022-12-07T16:49:06;21.03;;;10.43;;
19171;SDS011;9718;52.200;21.052;2022-12-07T16:51:36;21.90;;;10.60;;
19171;SDS011;9718;52.200;21.052;2022-12-07T16:54:03;19.30;;;9.70;;
19171;SDS011;9718;52.200;21.052;2022-12-07T16:56:30;23.13;;;10.90;;
19171;SDS011;9718;52.200;21.052;2022-12-07T16:58:58;21.87;;;10.50;;
19171;SDS011;9718;52.200;21.052;2022-12-07T17:01:25;21.40;;;10.63;;
19171;SDS011;9718;52.200;21.052;2022-12-07T17:03:55;20.23;;;10.10;;
19171;SDS011;9718;52.200;21.052;2022-12-07T17:06:25;20.03;;;10.60;;
19171;SDS011;9718;52.200;21.052;2022-12-07T17:08:54;21.17;;;11.00;;
19171;SDS011;9718;52.200;21.052;2022-12-07T17:11:23;24.80;;;10.70;;
19171;SDS011;9718;52.200;21.052;2022-12-07T17:13:54;24.67;;;11.00;;
19171;SDS011;9718;52.200;21.052;2022-12-07T17:16:40;20.77;;;10.97;;
19171;SDS011;9718;52.200;21.052;2022-12-07T17:19:09;21.50;;;11.20;;
19171;SDS011;9718;52.200;21.052;2022-12-07T17:21:37;20.57;;;10.63;;